sensor_id;sensor_type;location;lat;lon;timestamp;temperature;humidity
34815;DHT22;21030;53.912;15.214;2023-08-08T00:02:25;31.80;30.00
34815;DHT22;21030;53.912;15.214;2023-08-08T00:04:52;31.70;30.10
34815;DHT22;21030;53.912;15.214;2023-08-08T00:07:19;32.10;30.00
34815;DHT22;21030;53.912;15.214;2023-08-08T00:09:46;32.40;29.70
34815;DHT22;21030;53.912;15.214;2023-08-08T00:12:13;31.40;30.20
34815;DHT22;21030;53.912;15.214;2023-08-08T00:14:40;30.70;30.90
34815;DHT22;21030;53.912;15.214;2023-08-08T00:17:07;31.20;31.30
34815;DHT22;21030;53.912;15.214;2023-08-08T00:19:34;31.00;31.50
34815;DHT22;21030;53.912;15.214;2023-08-08T00:22:01;30.70;31.50
34815;DHT22;21030;53.912;15.214;2023-08-08T00:24:28;30.60;32.10
34815;DHT22;21030;53.912;15.214;2023-08-08T00:26:55;30.30;32.40
34815;DHT22;21030;53.912;15.214;2023-08-08T00:29:22;30.30;33.00
34815;DHT22;21030;53.912;15.214;2023-08-08T00:31:49;29.90;33.00
34815;DHT22;21030;53.912;15.214;2023-08-08T00:34:16;30.40;33.30
34815;DHT22;21030;53.912;15.214;2023-08-08T00:36:49;30.20;32.60
34815;DHT22;21030;53.912;15.214;2023-08-08T00:39:16;29.10;34.10
34815;DHT22;21030;53.912;15.214;2023-08-08T00:41:43;29.60;34.10
34815;DHT22;21030;53.912;15.214;2023-08-08T00:44:10;29.30;34.40
34815;DHT22;21030;53.912;15.214;2023-08-08T00:46:37;29.70;33.70
34815;DHT22;21030;53.912;15.214;2023-08-08T00:49:04;29.20;34.30
34815;DHT22;21030;53.912;15.214;2023-08-08T00:51:32;28.90;34.80
34815;DHT22;21030;53.912;15.214;2023-08-08T00:53:59;29.20;34.70
34815;DHT22;21030;53.912;15.214;2023-08-08T00:56:27;28.70;35.10
34815;DHT22;21030;53.912;15.214;2023-08-08T00:58:54;27.90;36.40
34815;DHT22;21030;53.912;15.214;2023-08-08T01:01:21;28.10;36.30
34815;DHT22;21030;53.912;15.214;2023-08-08T01:03:48;29.50;35.60
34815;DHT22;21030;53.912;15.214;2023-08-08T01:09:24;30.40;33.30
34815;DHT22;21030;53.912;15.214;2023-08-08T01:11:54;29.30;33.90
34815;DHT22;21030;53.912;15.214;2023-08-08T01:14:24;29.60;34.20
34815;DHT22;21030;53.912;15.214;2023-08-08T01:16:55;29.60;34.20
34815;DHT22;21030;53.912;15.214;2023-08-08T01:19:27;29.80;34.30
34815;DHT22;21030;53.912;15.214;2023-08-08T01:22:04;30.10;33.50
34815;DHT22;21030;53.912;15.214;2023-08-08T01:24:32;30.10;33.90
34815;DHT22;21030;53.912;15.214;2023-08-08T01:27:01;29.40;34.40
34815;DHT22;21030;53.912;15.214;2023-08-08T01:29:28;29.80;35.10
34815;DHT22;21030;53.912;15.214;2023-08-08T01:31:55;30.00;34.10
34815;DHT22;21030;53.912;15.214;2023-08-08T01:34:23;28.70;34.80
34815;DHT22;21030;53.912;15.214;2023-08-08T01:37:12;27.80;37.30
34815;DHT22;21030;53.912;15.214;2023-08-08T01:39:41;27.40;37.70
34815;DHT22;21030;53.912;15.214;2023-08-08T01:42:09;27.40;37.70
34815;DHT22;21030;53.912;15.214;2023-08-08T01:44:37;28.30;37.00
34815;DHT22;21030;53.912;15.214;2023-08-08T01:47:07;28.70;35.90
34815;DHT22;21030;53.912;15.214;2023-08-08T01:49:34;28.40;35.60
34815;DHT22;21030;53.912;15.214;2023-08-08T01:52:03;27.60;36.80
34815;DHT22;21030;53.912;15.214;2023-08-08T01:54:30;27.70;37.20
34815;DHT22;21030;53.912;15.214;2023-08-08T01:56:57;28.10;36.40
34815;DHT22;21030;53.912;15.214;2023-08-08T01:59:23;27.90;36.60
34815;DHT22;21030;53.912;15.214;2023-08-08T02:01:50;27.70;36.90
34815;DHT22;21030;53.912;15.214;2023-08-08T02:04:18;27.70;37.50
34815;DHT22;21030;53.912;15.214;2023-08-08T02:06:45;28.30;36.10
34815;DHT22;21030;53.912;15.214;2023-08-08T02:09:12;27.80;36.60
34815;DHT22;21030;53.912;15.214;2023-08-08T02:11:42;27.20;37.20
34815;DHT22;21030;53.912;15.214;2023-08-08T02:14:09;28.10;37.30
34815;DHT22;21030;53.912;15.214;2023-08-08T02:16:36;28.80;35.80
34815;DHT22;21030;53.912;15.214;2023-08-08T02:19:03;27.90;36.10
34815;DHT22;21030;53.912;15.214;2023-08-08T02:21:30;27.70;36.70
34815;DHT22;21030;53.912;15.214;2023-08-08T02:23:57;27.90;36.30
34815;DHT22;21030;53.912;15.214;2023-08-08T02:26:25;27.80;36.00
34815;DHT22;21030;53.912;15.214;2023-08-08T02:28:52;28.30;35.80
34815;DHT22;21030;53.912;15.214;2023-08-08T02:31:20;29.10;34.80
34815;DHT22;21030;53.912;15.214;2023-08-08T02:33:51;29.30;34.20
34815;DHT22;21030;53.912;15.214;2023-08-08T02:36:18;29.80;33.30
34815;DHT22;21030;53.912;15.214;2023-08-08T02:38:48;28.50;34.40
34815;DHT22;21030;53.912;15.214;2023-08-08T02:41:16;27.70;35.60
34815;DHT22;21030;53.912;15.214;2023-08-08T02:43:43;28.50;35.80
34815;DHT22;21030;53.912;15.214;2023-08-08T02:46:10;28.70;34.40
34815;DHT22;21030;53.912;15.214;2023-08-08T02:48:37;28.20;35.00
34815;DHT22;21030;53.912;15.214;2023-08-08T02:51:04;28.30;34.90
34815;DHT22;21030;53.912;15.214;2023-08-08T02:53:31;28.20;34.80
34815;DHT22;21030;53.912;15.214;2023-08-08T02:55:58;28.40;35.00
34815;DHT22;21030;53.912;15.214;2023-08-08T02:58:25;28.60;34.80
34815;DHT22;21030;53.912;15.214;2023-08-08T03:00:52;28.10;34.80
34815;DHT22;21030;53.912;15.214;2023-08-08T03:03:19;28.40;35.20
34815;DHT22;21030;53.912;15.214;2023-08-08T03:05:46;28.20;34.90
34815;DHT22;21030;53.912;15.214;2023-08-08T03:08:13;28.00;35.30
34815;DHT22;21030;53.912;15.214;2023-08-08T03:10:40;28.60;34.50
34815;DHT22;21030;53.912;15.214;2023-08-08T03:13:07;28.10;35.00
34815;DHT22;21030;53.912;15.214;2023-08-08T03:15:34;28.70;34.80
34815;DHT22;21030;53.912;15.214;2023-08-08T03:18:02;29.10;33.80
34815;DHT22;21030;53.912;15.214;2023-08-08T03:20:30;29.10;33.70
34815;DHT22;21030;53.912;15.214;2023-08-08T03:22:57;29.50;33.40
34815;DHT22;21030;53.912;15.214;2023-08-08T03:25:24;28.50;34.10
34815;DHT22;21030;53.912;15.214;2023-08-08T03:27:51;27.90;34.90
34815;DHT22;21030;53.912;15.214;2023-08-08T03:30:19;28.40;34.80
34815;DHT22;21030;53.912;15.214;2023-08-08T03:32:46;28.80;34.40
34815;DHT22;21030;53.912;15.214;2023-08-08T03:35:13;29.90;33.10
34815;DHT22;21030;53.912;15.214;2023-08-08T03:37:42;29.50;33.20
34815;DHT22;21030;53.912;15.214;2023-08-08T03:40:09;29.50;33.30
34815;DHT22;21030;53.912;15.214;2023-08-08T03:42:36;29.10;33.40
34815;DHT22;21030;53.912;15.214;2023-08-08T03:45:03;28.60;34.80
34815;DHT22;21030;53.912;15.214;2023-08-08T03:47:31;27.70;35.30
34815;DHT22;21030;53.912;15.214;2023-08-08T03:49:58;28.30;35.40
34815;DHT22;21030;53.912;15.214;2023-08-08T03:52:25;28.20;35.20
34815;DHT22;21030;53.912;15.214;2023-08-08T03:54:52;28.40;34.90
34815;DHT22;21030;53.912;15.214;2023-08-08T03:57:19;28.90;34.20
34815;DHT22;21030;53.912;15.214;2023-08-08T03:59:46;28.80;34.10
34815;DHT22;21030;53.912;15.214;2023-08-08T04:02:13;29.30;33.60
34815;DHT22;21030;53.912;15.214;2023-08-08T04:04:40;29.40;34.10
34815;DHT22;21030;53.912;15.214;2023-08-08T04:07:08;28.90;33.70
34815;DHT22;21030;53.912;15.214;2023-08-08T04:09:35;30.00;32.80
34815;DHT22;21030;53.912;15.214;2023-08-08T04:12:02;30.20;32.10
34815;DHT22;21030;53.912;15.214;2023-08-08T04:14:29;29.90;31.90
34815;DHT22;21030;53.912;15.214;2023-08-08T04:16:56;29.60;32.50
34815;DHT22;21030;53.912;15.214;2023-08-08T04:19:23;29.60;32.80
34815;DHT22;21030;53.912;15.214;2023-08-08T04:21:50;29.10;32.50
34815;DHT22;21030;53.912;15.214;2023-08-08T04:24:18;28.90;33.60
34815;DHT22;21030;53.912;15.214;2023-08-08T04:26:45;28.80;34.00
34815;DHT22;21030;53.912;15.214;2023-08-08T04:29:12;29.30;33.60
34815;DHT22;21030;53.912;15.214;2023-08-08T04:31:39;28.30;34.10
34815;DHT22;21030;53.912;15.214;2023-08-08T04:34:06;28.40;34.70
34815;DHT22;21030;53.912;15.214;2023-08-08T04:36:33;28.50;33.90
34815;DHT22;21030;53.912;15.214;2023-08-08T04:39:00;28.80;34.30
34815;DHT22;21030;53.912;15.214;2023-08-08T04:41:29;29.50;32.90
34815;DHT22;21030;53.912;15.214;2023-08-08T04:43:56;29.00;33.30
34815;DHT22;21030;53.912;15.214;2023-08-08T04:46:23;29.10;33.30
34815;DHT22;21030;53.912;15.214;2023-08-08T04:48:50;29.30;33.30
34815;DHT22;21030;53.912;15.214;2023-08-08T04:51:17;30.00;33.00
34815;DHT22;21030;53.912;15.214;2023-08-08T04:53:44;30.10;32.20
34815;DHT22;21030;53.912;15.214;2023-08-08T04:56:11;29.70;31.90
34815;DHT22;21030;53.912;15.214;2023-08-08T04:58:38;30.00;32.00
34815;DHT22;21030;53.912;15.214;2023-08-08T05:01:05;29.60;32.10
34815;DHT22;21030;53.912;15.214;2023-08-08T05:03:32;29.30;33.00
34815;DHT22;21030;53.912;15.214;2023-08-08T05:05:59;29.70;33.00
34815;DHT22;21030;53.912;15.214;2023-08-08T05:08:26;31.00;31.60
34815;DHT22;21030;53.912;15.214;2023-08-08T05:10:53;31.70;30.30
34815;DHT22;21030;53.912;15.214;2023-08-08T05:13:20;30.50;30.60
34815;DHT22;21030;53.912;15.214;2023-08-08T05:15:47;30.40;31.20
34815;DHT22;21030;53.912;15.214;2023-08-08T05:18:14;30.70;31.30
34815;DHT22;21030;53.912;15.214;2023-08-08T05:20:41;30.70;31.00
34815;DHT22;21030;53.912;15.214;2023-08-08T05:23:09;31.50;30.40
34815;DHT22;21030;53.912;15.214;2023-08-08T05:25:36;32.10;30.00
34815;DHT22;21030;53.912;15.214;2023-08-08T05:28:03;31.50;29.80
34815;DHT22;21030;53.912;15.214;2023-08-08T05:30:30;30.80;30.30
34815;DHT22;21030;53.912;15.214;2023-08-08T05:32:57;30.80;31.10
34815;DHT22;21030;53.912;15.214;2023-08-08T05:35:24;31.20;30.20
34815;DHT22;21030;53.912;15.214;2023-08-08T05:37:51;30.30;31.60
34815;DHT22;21030;53.912;15.214;2023-08-08T05:40:19;30.70;31.60
34815;DHT22;21030;53.912;15.214;2023-08-08T05:42:46;31.20;31.20
34815;DHT22;21030;53.912;15.214;2023-08-08T05:45:13;31.40;30.30
34815;DHT22;21030;53.912;15.214;2023-08-08T05:47:40;30.60;30.70
34815;DHT22;21030;53.912;15.214;2023-08-08T05:50:07;30.70;31.00
34815;DHT22;21030;53.912;15.214;2023-08-08T05:52:34;30.50;31.20
34815;DHT22;21030;53.912;15.214;2023-08-08T05:55:01;31.10;31.20
34815;DHT22;21030;53.912;15.214;2023-08-08T05:57:28;31.60;30.20
34815;DHT22;21030;53.912;15.214;2023-08-08T05:59:55;30.70;30.10
34815;DHT22;21030;53.912;15.214;2023-08-08T06:02:22;30.70;31.20
34815;DHT22;21030;53.912;15.214;2023-08-08T06:04:49;30.60;31.00
34815;DHT22;21030;53.912;15.214;2023-08-08T06:07:18;31.30;30.40
34815;DHT22;21030;53.912;15.214;2023-08-08T06:09:46;31.20;30.30
34815;DHT22;21030;53.912;15.214;2023-08-08T06:12:13;30.50;30.80
34815;DHT22;21030;53.912;15.214;2023-08-08T06:14:40;30.50;31.30
34815;DHT22;21030;53.912;15.214;2023-08-08T06:17:09;31.20;31.00
34815;DHT22;21030;53.912;15.214;2023-08-08T06:19:36;31.00;31.00
34815;DHT22;21030;53.912;15.214;2023-08-08T06:22:03;31.60;30.20
34815;DHT22;21030;53.912;15.214;2023-08-08T06:24:30;31.80;30.00
34815;DHT22;21030;53.912;15.214;2023-08-08T06:26:59;31.80;30.00
34815;DHT22;21030;53.912;15.214;2023-08-08T06:29:26;32.00;29.50
34815;DHT22;21030;53.912;15.214;2023-08-08T06:31:53;32.20;29.50
34815;DHT22;21030;53.912;15.214;2023-08-08T06:34:21;32.30;29.40
34815;DHT22;21030;53.912;15.214;2023-08-08T06:36:48;32.80;29.70
34815;DHT22;21030;53.912;15.214;2023-08-08T06:39:15;32.50;29.10
34815;DHT22;21030;53.912;15.214;2023-08-08T06:41:42;32.20;29.50
34815;DHT22;21030;53.912;15.214;2023-08-08T06:44:09;32.00;29.30
34815;DHT22;21030;53.912;15.214;2023-08-08T06:46:36;32.10;29.00
34815;DHT22;21030;53.912;15.214;2023-08-08T06:49:03;32.20;29.10
34815;DHT22;21030;53.912;15.214;2023-08-08T06:51:31;32.10;28.80
34815;DHT22;21030;53.912;15.214;2023-08-08T06:53:58;31.90;29.50
34815;DHT22;21030;53.912;15.214;2023-08-08T06:56:25;31.70;29.60
34815;DHT22;21030;53.912;15.214;2023-08-08T06:58:55;31.90;29.80
34815;DHT22;21030;53.912;15.214;2023-08-08T07:01:22;31.80;29.30
34815;DHT22;21030;53.912;15.214;2023-08-08T07:03:49;31.40;29.70
34815;DHT22;21030;53.912;15.214;2023-08-08T07:06:18;31.80;29.10
34815;DHT22;21030;53.912;15.214;2023-08-08T07:08:45;31.70;29.30
34815;DHT22;21030;53.912;15.214;2023-08-08T07:11:12;32.40;29.10
34815;DHT22;21030;53.912;15.214;2023-08-08T07:13:40;32.50;28.70
34815;DHT22;21030;53.912;15.214;2023-08-08T07:16:07;33.00;28.70
34815;DHT22;21030;53.912;15.214;2023-08-08T07:18:34;33.30;28.50
34815;DHT22;21030;53.912;15.214;2023-08-08T07:21:01;33.50;28.20
34815;DHT22;21030;53.912;15.214;2023-08-08T07:23:28;33.70;27.80
34815;DHT22;21030;53.912;15.214;2023-08-08T07:25:55;34.10;27.80
34815;DHT22;21030;53.912;15.214;2023-08-08T07:28:23;34.00;27.30
34815;DHT22;21030;53.912;15.214;2023-08-08T07:30:50;33.70;27.50
34815;DHT22;21030;53.912;15.214;2023-08-08T07:33:17;33.70;27.80
34815;DHT22;21030;53.912;15.214;2023-08-08T07:35:44;34.00;27.60
34815;DHT22;21030;53.912;15.214;2023-08-08T07:38:12;33.70;27.60
34815;DHT22;21030;53.912;15.214;2023-08-08T07:40:39;34.20;27.50
34815;DHT22;21030;53.912;15.214;2023-08-08T07:43:07;34.20;28.10
34815;DHT22;21030;53.912;15.214;2023-08-08T07:45:34;33.30;28.10
34815;DHT22;21030;53.912;15.214;2023-08-08T07:48:01;33.00;28.40
34815;DHT22;21030;53.912;15.214;2023-08-08T07:50:29;32.90;29.10
34815;DHT22;21030;53.912;15.214;2023-08-08T07:52:56;32.70;28.90
34815;DHT22;21030;53.912;15.214;2023-08-08T07:55:23;32.30;29.50
34815;DHT22;21030;53.912;15.214;2023-08-08T07:57:50;30.90;30.50
34815;DHT22;21030;53.912;15.214;2023-08-08T08:00:17;31.00;31.10
34815;DHT22;21030;53.912;15.214;2023-08-08T08:02:45;30.70;30.80
34815;DHT22;21030;53.912;15.214;2023-08-08T08:05:13;30.30;31.80
34815;DHT22;21030;53.912;15.214;2023-08-08T08:07:41;30.30;32.10
34815;DHT22;21030;53.912;15.214;2023-08-08T08:10:10;31.40;30.90
34815;DHT22;21030;53.912;15.214;2023-08-08T08:12:41;31.10;30.40
34815;DHT22;21030;53.912;15.214;2023-08-08T08:15:09;31.30;30.40
34815;DHT22;21030;53.912;15.214;2023-08-08T08:17:36;31.30;30.60
34815;DHT22;21030;53.912;15.214;2023-08-08T08:20:03;31.10;31.00
34815;DHT22;21030;53.912;15.214;2023-08-08T08:22:38;31.30;31.00
34815;DHT22;21030;53.912;15.214;2023-08-08T08:25:06;32.00;30.00
34815;DHT22;21030;53.912;15.214;2023-08-08T08:27:36;31.90;30.30
34815;DHT22;21030;53.912;15.214;2023-08-08T08:30:07;32.30;30.30
34815;DHT22;21030;53.912;15.214;2023-08-08T08:32:40;32.50;29.80
34815;DHT22;21030;53.912;15.214;2023-08-08T08:35:08;32.40;29.90
34815;DHT22;21030;53.912;15.214;2023-08-08T08:37:35;32.40;30.00
34815;DHT22;21030;53.912;15.214;2023-08-08T08:40:02;32.30;30.00
34815;DHT22;21030;53.912;15.214;2023-08-08T08:42:32;32.60;29.80
34815;DHT22;21030;53.912;15.214;2023-08-08T08:45:01;32.40;29.50
34815;DHT22;21030;53.912;15.214;2023-08-08T08:47:30;32.10;30.00
34815;DHT22;21030;53.912;15.214;2023-08-08T08:49:58;32.00;30.70
34815;DHT22;21030;53.912;15.214;2023-08-08T08:52:25;32.10;31.50
34815;DHT22;21030;53.912;15.214;2023-08-08T08:54:53;31.80;31.00
34815;DHT22;21030;53.912;15.214;2023-08-08T08:57:23;32.30;30.40
34815;DHT22;21030;53.912;15.214;2023-08-08T08:59:51;32.20;30.10
34815;DHT22;21030;53.912;15.214;2023-08-08T09:02:19;32.70;30.00
34815;DHT22;21030;53.912;15.214;2023-08-08T09:04:46;32.50;29.80
34815;DHT22;21030;53.912;15.214;2023-08-08T09:07:14;32.80;29.90
34815;DHT22;21030;53.912;15.214;2023-08-08T09:09:43;32.70;30.00
34815;DHT22;21030;53.912;15.214;2023-08-08T09:12:10;32.50;29.40
34815;DHT22;21030;53.912;15.214;2023-08-08T09:14:41;32.40;29.80
34815;DHT22;21030;53.912;15.214;2023-08-08T09:17:12;32.50;29.60
34815;DHT22;21030;53.912;15.214;2023-08-08T09:19:44;32.20;29.70
34815;DHT22;21030;53.912;15.214;2023-08-08T09:22:12;33.10;29.50
34815;DHT22;21030;53.912;15.214;2023-08-08T09:24:40;34.10;28.70
34815;DHT22;21030;53.912;15.214;2023-08-08T09:27:08;32.80;29.40
34815;DHT22;21030;53.912;15.214;2023-08-08T09:29:37;32.00;30.40
34815;DHT22;21030;53.912;15.214;2023-08-08T09:32:05;32.80;30.60
34815;DHT22;21030;53.912;15.214;2023-08-08T09:34:33;33.20;29.70
34815;DHT22;21030;53.912;15.214;2023-08-08T09:37:01;33.50;29.50
34815;DHT22;21030;53.912;15.214;2023-08-08T09:39:29;34.40;28.60
34815;DHT22;21030;53.912;15.214;2023-08-08T09:41:56;34.80;27.80
34815;DHT22;21030;53.912;15.214;2023-08-08T09:44:24;34.80;27.40
34815;DHT22;21030;53.912;15.214;2023-08-08T09:46:53;34.40;27.80
34815;DHT22;21030;53.912;15.214;2023-08-08T09:49:21;34.10;27.80
34815;DHT22;21030;53.912;15.214;2023-08-08T09:51:49;34.50;27.70
34815;DHT22;21030;53.912;15.214;2023-08-08T09:54:17;34.30;28.00
34815;DHT22;21030;53.912;15.214;2023-08-08T09:56:45;34.40;28.00
34815;DHT22;21030;53.912;15.214;2023-08-08T09:59:13;33.40;28.80
34815;DHT22;21030;53.912;15.214;2023-08-08T10:01:41;33.10;29.60
34815;DHT22;21030;53.912;15.214;2023-08-08T10:04:11;33.10;30.00
34815;DHT22;21030;53.912;15.214;2023-08-08T10:06:38;33.40;29.90
34815;DHT22;21030;53.912;15.214;2023-08-08T10:09:05;33.40;29.70
34815;DHT22;21030;53.912;15.214;2023-08-08T10:11:33;33.10;29.80
34815;DHT22;21030;53.912;15.214;2023-08-08T10:14:02;32.50;29.90
34815;DHT22;21030;53.912;15.214;2023-08-08T10:16:33;32.00;30.90
34815;DHT22;21030;53.912;15.214;2023-08-08T10:19:03;32.40;30.90
34815;DHT22;21030;53.912;15.214;2023-08-08T10:21:44;33.10;30.40
34815;DHT22;21030;53.912;15.214;2023-08-08T10:24:12;32.80;29.80
34815;DHT22;21030;53.912;15.214;2023-08-08T10:26:57;33.00;30.00
34815;DHT22;21030;53.912;15.214;2023-08-08T10:29:28;32.90;29.00
34815;DHT22;21030;53.912;15.214;2023-08-08T10:32:04;33.00;29.00
34815;DHT22;21030;53.912;15.214;2023-08-08T10:34:43;33.90;29.10
34815;DHT22;21030;53.912;15.214;2023-08-08T10:37:15;34.00;27.90
34815;DHT22;21030;53.912;15.214;2023-08-08T10:40:09;33.40;28.00
34815;DHT22;21030;53.912;15.214;2023-08-08T10:42:43;33.50;28.80
34815;DHT22;21030;53.912;15.214;2023-08-08T10:45:12;34.10;28.30
34815;DHT22;21030;53.912;15.214;2023-08-08T10:47:43;34.00;28.00
34815;DHT22;21030;53.912;15.214;2023-08-08T10:50:14;34.20;28.20
34815;DHT22;21030;53.912;15.214;2023-08-08T10:52:51;35.00;27.90
34815;DHT22;21030;53.912;15.214;2023-08-08T10:55:24;34.40;27.40
34815;DHT22;21030;53.912;15.214;2023-08-08T10:57:54;33.60;28.10
34815;DHT22;21030;53.912;15.214;2023-08-08T11:00:28;33.60;28.20
34815;DHT22;21030;53.912;15.214;2023-08-08T11:02:57;34.10;28.40
34815;DHT22;21030;53.912;15.214;2023-08-08T11:05:25;33.70;28.20
34815;DHT22;21030;53.912;15.214;2023-08-08T11:07:54;33.50;28.90
34815;DHT22;21030;53.912;15.214;2023-08-08T11:10:22;33.30;29.00
34815;DHT22;21030;53.912;15.214;2023-08-08T11:12:57;32.40;29.70
34815;DHT22;21030;53.912;15.214;2023-08-08T11:15:25;32.30;29.80
34815;DHT22;21030;53.912;15.214;2023-08-08T11:17:55;32.00;29.80
34815;DHT22;21030;53.912;15.214;2023-08-08T11:20:23;32.60;29.40
34815;DHT22;21030;53.912;15.214;2023-08-08T11:22:54;33.60;28.60
34815;DHT22;21030;53.912;15.214;2023-08-08T11:25:22;33.60;27.80
34815;DHT22;21030;53.912;15.214;2023-08-08T11:27:52;33.00;28.10
34815;DHT22;21030;53.912;15.214;2023-08-08T11:30:20;32.10;29.30
34815;DHT22;21030;53.912;15.214;2023-08-08T11:32:49;32.10;30.00
34815;DHT22;21030;53.912;15.214;2023-08-08T11:35:23;32.10;31.10
34815;DHT22;21030;53.912;15.214;2023-08-08T11:37:54;32.90;30.80
34815;DHT22;21030;53.912;15.214;2023-08-08T11:40:23;32.90;31.00
34815;DHT22;21030;53.912;15.214;2023-08-08T11:42:52;32.70;31.50
34815;DHT22;21030;53.912;15.214;2023-08-08T11:45:19;32.50;32.00
34815;DHT22;21030;53.912;15.214;2023-08-08T11:47:51;31.80;33.20
34815;DHT22;21030;53.912;15.214;2023-08-08T11:50:20;32.50;33.30
34815;DHT22;21030;53.912;15.214;2023-08-08T11:52:51;33.70;31.80
34815;DHT22;21030;53.912;15.214;2023-08-08T11:55:20;34.50;30.50
34815;DHT22;21030;53.912;15.214;2023-08-08T11:57:50;35.20;29.20
34815;DHT22;21030;53.912;15.214;2023-08-08T12:00:20;35.80;28.70
34815;DHT22;21030;53.912;15.214;2023-08-08T12:02:47;35.90;28.40
34815;DHT22;21030;53.912;15.214;2023-08-08T12:05:15;35.80;27.80
34815;DHT22;21030;53.912;15.214;2023-08-08T12:07:49;35.90;28.00
34815;DHT22;21030;53.912;15.214;2023-08-08T12:10:21;35.90;27.60
34815;DHT22;21030;53.912;15.214;2023-08-08T12:12:54;36.10;27.80
34815;DHT22;21030;53.912;15.214;2023-08-08T12:15:22;35.50;27.90
34815;DHT22;21030;53.912;15.214;2023-08-08T12:17:49;35.60;28.20
34815;DHT22;21030;53.912;15.214;2023-08-08T12:20:16;35.20;28.50
34815;DHT22;21030;53.912;15.214;2023-08-08T12:22:43;35.40;28.50
34815;DHT22;21030;53.912;15.214;2023-08-08T12:25:10;35.60;29.00
34815;DHT22;21030;53.912;15.214;2023-08-08T12:27:38;35.60;28.00
34815;DHT22;21030;53.912;15.214;2023-08-08T12:30:07;35.70;28.10
34815;DHT22;21030;53.912;15.214;2023-08-08T12:32:34;35.80;27.70
34815;DHT22;21030;53.912;15.214;2023-08-08T12:35:02;36.00;27.70
34815;DHT22;21030;53.912;15.214;2023-08-08T12:37:29;36.80;26.70
34815;DHT22;21030;53.912;15.214;2023-08-08T12:39:56;36.60;27.10
34815;DHT22;21030;53.912;15.214;2023-08-08T12:42:24;37.50;26.70
34815;DHT22;21030;53.912;15.214;2023-08-08T12:44:51;37.10;26.20
34815;DHT22;21030;53.912;15.214;2023-08-08T12:47:19;37.60;26.40
34815;DHT22;21030;53.912;15.214;2023-08-08T12:49:47;39.00;26.10
34815;DHT22;21030;53.912;15.214;2023-08-08T12:52:14;39.90;25.00
34815;DHT22;21030;53.912;15.214;2023-08-08T12:54:41;40.30;24.40
34815;DHT22;21030;53.912;15.214;2023-08-08T12:57:08;39.40;23.40
34815;DHT22;21030;53.912;15.214;2023-08-08T12:59:35;39.60;24.20
34815;DHT22;21030;53.912;15.214;2023-08-08T13:02:03;40.30;24.40
34815;DHT22;21030;53.912;15.214;2023-08-08T13:04:31;39.30;23.20
34815;DHT22;21030;53.912;15.214;2023-08-08T13:06:58;38.70;23.90
34815;DHT22;21030;53.912;15.214;2023-08-08T13:09:25;38.40;24.20
34815;DHT22;21030;53.912;15.214;2023-08-08T13:11:52;37.20;25.70
34815;DHT22;21030;53.912;15.214;2023-08-08T13:14:19;36.40;27.80
34815;DHT22;21030;53.912;15.214;2023-08-08T13:16:46;36.00;29.40
34815;DHT22;21030;53.912;15.214;2023-08-08T13:19:14;35.20;30.00
34815;DHT22;21030;53.912;15.214;2023-08-08T13:21:43;35.10;29.90
34815;DHT22;21030;53.912;15.214;2023-08-08T13:24:10;34.40;31.00
34815;DHT22;21030;53.912;15.214;2023-08-08T13:26:42;33.70;32.30
34815;DHT22;21030;53.912;15.214;2023-08-08T13:29:11;33.10;32.60
34815;DHT22;21030;53.912;15.214;2023-08-08T13:31:41;33.00;32.90
34815;DHT22;21030;53.912;15.214;2023-08-08T13:34:08;32.40;32.90
34815;DHT22;21030;53.912;15.214;2023-08-08T13:36:36;31.50;34.20
34815;DHT22;21030;53.912;15.214;2023-08-08T13:39:03;32.00;34.40
34815;DHT22;21030;53.912;15.214;2023-08-08T13:41:31;32.40;34.50
34815;DHT22;21030;53.912;15.214;2023-08-08T13:44:00;32.30;33.60
34815;DHT22;21030;53.912;15.214;2023-08-08T13:46:27;31.90;34.40
34815;DHT22;21030;53.912;15.214;2023-08-08T13:48:54;31.60;33.90
34815;DHT22;21030;53.912;15.214;2023-08-08T13:51:21;31.20;35.10
34815;DHT22;21030;53.912;15.214;2023-08-08T13:53:49;30.80;36.20
34815;DHT22;21030;53.912;15.214;2023-08-08T13:56:17;30.40;36.70
34815;DHT22;21030;53.912;15.214;2023-08-08T13:58:44;30.20;37.50
34815;DHT22;21030;53.912;15.214;2023-08-08T14:01:11;29.20;38.60
34815;DHT22;21030;53.912;15.214;2023-08-08T14:03:38;28.90;39.50
34815;DHT22;21030;53.912;15.214;2023-08-08T14:06:05;29.50;39.10
34815;DHT22;21030;53.912;15.214;2023-08-08T14:08:33;30.40;38.20
34815;DHT22;21030;53.912;15.214;2023-08-08T14:11:00;30.60;38.10
34815;DHT22;21030;53.912;15.214;2023-08-08T14:13:27;31.50;37.10
34815;DHT22;21030;53.912;15.214;2023-08-08T14:15:54;31.50;35.40
34815;DHT22;21030;53.912;15.214;2023-08-08T14:18:22;32.20;34.60
34815;DHT22;21030;53.912;15.214;2023-08-08T14:20:49;32.80;33.50
34815;DHT22;21030;53.912;15.214;2023-08-08T14:23:16;33.20;32.70
34815;DHT22;21030;53.912;15.214;2023-08-08T14:25:43;33.90;31.80
34815;DHT22;21030;53.912;15.214;2023-08-08T14:28:10;34.30;31.00
34815;DHT22;21030;53.912;15.214;2023-08-08T14:30:38;34.20;30.70
34815;DHT22;21030;53.912;15.214;2023-08-08T14:33:05;34.30;30.20
34815;DHT22;21030;53.912;15.214;2023-08-08T14:35:33;33.90;29.70
34815;DHT22;21030;53.912;15.214;2023-08-08T14:38:00;33.80;30.70
34815;DHT22;21030;53.912;15.214;2023-08-08T14:40:28;34.00;30.70
34815;DHT22;21030;53.912;15.214;2023-08-08T14:42:55;34.40;30.10
34815;DHT22;21030;53.912;15.214;2023-08-08T14:45:23;34.50;30.00
34815;DHT22;21030;53.912;15.214;2023-08-08T14:47:51;34.00;30.70
34815;DHT22;21030;53.912;15.214;2023-08-08T14:50:21;34.20;31.00
34815;DHT22;21030;53.912;15.214;2023-08-08T14:52:48;34.40;30.60
34815;DHT22;21030;53.912;15.214;2023-08-08T14:55:15;34.40;30.50
34815;DHT22;21030;53.912;15.214;2023-08-08T14:57:42;33.90;30.60
34815;DHT22;21030;53.912;15.214;2023-08-08T15:00:10;33.60;30.90
34815;DHT22;21030;53.912;15.214;2023-08-08T15:02:41;33.30;31.50
34815;DHT22;21030;53.912;15.214;2023-08-08T15:05:11;33.00;32.00
34815;DHT22;21030;53.912;15.214;2023-08-08T15:07:38;32.70;33.00
34815;DHT22;21030;53.912;15.214;2023-08-08T15:10:05;33.30;32.70
34815;DHT22;21030;53.912;15.214;2023-08-08T15:12:33;32.80;32.20
34815;DHT22;21030;53.912;15.214;2023-08-08T15:15:04;32.50;33.00
34815;DHT22;21030;53.912;15.214;2023-08-08T15:17:33;31.60;33.70
34815;DHT22;21030;53.912;15.214;2023-08-08T15:20:04;31.30;34.80
34815;DHT22;21030;53.912;15.214;2023-08-08T15:22:33;31.90;34.50
34815;DHT22;21030;53.912;15.214;2023-08-08T15:25:00;32.60;33.70